Time;durP1;ratioP1;P1;durP2;ratioP2;P2;SDS_P1;SDS_P2;PMS_P1;PMS_P2;Temp;Humidity;BMP_temperature;BMP_pressure;BME280_temperature;BME280_humidity;BME280_pressure;Samples;Min_cycle;Max_cycle;Signal;HPM_P1;HPM_P2
2022/02/14 00:00:14;;;;;;;18.90;13.75;;;;;;;;;;815056;73;26265;-85
2022/02/14 00:01:17;;;;;;;16.52;14.05;;;;;;;;;;815016;73;26783;-85
2022/02/14 00:02:20;;;;;;;20.88;13.90;;;;;;;;;;815053;73;26269;-85
2022/02/14 00:03:26;;;;;;;16.97;14.50;;;;;;;;;;815033;73;26296;-85
2022/02/14 00:04:28;;;;;;;20.00;14.50;;;;;;;;;;815175;72;26214;-85
2022/02/14 00:05:32;;;;;;;21.48;15.08;;;;;;;;;;815385;73;26308;-85
2022/02/14 00:06:34;;;;;;;23.02;16.02;;;;;;;;;;814891;73;26213;-86
2022/02/14 00:07:37;;;;;;;21.85;15.90;;;;;;;;;;815104;73;26366;-87
2022/02/14 00:08:41;;;;;;;24.35;16.95;;;;;;;;;;815207;73;26697;-86
2022/02/14 00:09:46;;;;;;;22.70;15.45;;;;;;;;;;800665;73;26307;-85
2022/02/14 00:10:49;;;;;;;27.87;18.12;;;;;;;;;;815365;73;26516;-86
2022/02/14 00:11:53;;;;;;;22.60;17.00;;;;;;;;;;815144;73;26273;-86
2022/02/14 00:12:55;;;;;;;23.35;17.05;;;;;;;;;;814870;73;26386;-85
2022/02/14 00:13:58;;;;;;;22.30;17.30;;;;;;;;;;815103;72;26281;-85
2022/02/14 00:15:01;;;;;;;19.98;16.35;;;;;;;;;;815393;73;26275;-84
2022/02/14 00:16:04;;;;;;;26.73;18.40;;;;;;;;;;799961;73;26295;-85
2022/02/14 00:17:07;;;;;;;28.10;17.98;;;;;;;;;;815236;73;26287;-85
2022/02/14 00:18:10;;;;;;;27.85;20.02;;;;;;;;;;799815;73;26295;-85
2022/02/14 00:19:13;;;;;;;28.67;18.80;;;;;;;;;;815025;73;26778;-86
2022/02/14 00:20:16;;;;;;;26.82;19.10;;;;;;;;;;815183;73;26334;-83
2022/02/14 00:21:19;;;;;;;28.70;18.75;;;;;;;;;;800132;73;26327;-83
2022/02/14 00:22:22;;;;;;;27.22;19.40;;;;;;;;;;815218;73;26362;-84
2022/02/14 00:23:26;;;;;;;25.45;19.37;;;;;;;;;;814948;73;26837;-84
2022/02/14 00:24:29;;;;;;;27.37;19.80;;;;;;;;;;815054;73;26399;-87
2022/02/14 00:25:31;;;;;;;27.32;19.37;;;;;;;;;;815132;73;24614;-85
2022/02/14 00:26:34;;;;;;;25.30;18.57;;;;;;;;;;815128;73;26420;-86
2022/02/14 00:27:37;;;;;;;28.62;18.60;;;;;;;;;;815175;73;26312;-85
2022/02/14 00:28:40;;;;;;;25.40;18.35;;;;;;;;;;815011;72;26287;-85
2022/02/14 00:29:42;;;;;;;26.10;18.52;;;;;;;;;;800090;73;26280;-84
2022/02/14 00:30:45;;;;;;;27.00;18.00;;;;;;;;;;799991;73;26251;-87
2022/02/14 00:31:48;;;;;;;25.92;19.20;;;;;;;;;;815023;73;26353;-85
2022/02/14 00:32:52;;;;;;;26.27;18.20;;;;;;;;;;800640;73;26480;-86
2022/02/14 00:33:55;;;;;;;22.22;17.98;;;;;;;;;;815158;73;26324;-85
2022/02/14 00:34:58;;;;;;;24.52;17.62;;;;;;;;;;814927;73;26335;-83
2022/02/14 00:36:01;;;;;;;24.77;17.25;;;;;;;;;;800166;73;26283;-85
2022/02/14 00:37:04;;;;;;;23.85;17.73;;;;;;;;;;815030;73;26327;-85
2022/02/14 00:38:06;;;;;;;24.30;17.48;;;;;;;;;;815265;73;26182;-86
2022/02/14 00:39:10;;;;;;;24.20;18.12;;;;;;;;;;815216;73;26277;-86
2022/02/14 00:40:12;;;;;;;26.17;18.60;;;;;;;;;;814991;73;26233;-83
2022/02/14 00:41:15;;;;;;;23.47;17.82;;;;;;;;;;815125;73;26261;-86
2022/02/14 00:42:18;;;;;;;21.70;17.17;;;;;;;;;;815005;73;26264;-86
2022/02/14 00:43:21;;;;;;;25.97;18.50;;;;;;;;;;800027;73;26307;-84
2022/02/14 00:44:23;;;;;;;25.85;18.35;;;;;;;;;;815022;73;26252;-86
2022/02/14 00:45:26;;;;;;;23.55;17.98;;;;;;;;;;814956;73;26225;-84
2022/02/14 00:46:29;;;;;;;23.12;17.10;;;;;;;;;;815224;73;26300;-88
2022/02/14 00:47:32;;;;;;;22.27;16.57;;;;;;;;;;815139;73;26348;-86
2022/02/14 00:48:34;;;;;;;19.62;14.87;;;;;;;;;;815273;73;27210;-83
2022/02/14 00:49:37;;;;;;;20.60;15.23;;;;;;;;;;815122;73;26323;-85
2022/02/14 00:50:40;;;;;;;19.20;14.47;;;;;;;;;;814965;73;26226;-84
2022/02/14 00:51:43;;;;;;;18.70;13.95;;;;;;;;;;815186;73;26300;-85
2022/02/14 00:52:45;;;;;;;13.78;11.97;;;;;;;;;;815170;73;26268;-85
2022/02/14 00:53:48;;;;;;;17.10;11.22;;;;;;;;;;815120;73;26525;-85
2022/02/14 00:54:52;;;;;;;15.38;11.63;;;;;;;;;;815045;73;26283;-85
2022/02/14 00:55:55;;;;;;;20.12;11.90;;;;;;;;;;815113;73;26218;-86
2022/02/14 00:56:59;;;;;;;16.85;12.93;;;;;;;;;;815055;73;26365;-88
2022/02/14 00:58:02;;;;;;;18.55;13.45;;;;;;;;;;815146;73;26404;-84
2022/02/14 00:59:05;;;;;;;16.93;11.93;;;;;;;;;;815272;73;26300;-84
2022/02/14 01:00:09;;;;;;;16.40;12.65;;;;;;;;;;815191;73;26355;-85
2022/02/14 01:01:12;;;;;;;17.65;12.90;;;;;;;;;;815134;73;26260;-85
2022/02/14 01:02:15;;;;;;;18.48;14.10;;;;;;;;;;814929;73;26695;-86
2022/02/14 01:03:17;;;;;;;14.20;12.70;;;;;;;;;;800167;73;26666;-86
2022/02/14 01:04:20;;;;;;;19.92;13.75;;;;;;;;;;815162;73;26293;-85
2022/02/14 01:05:23;;;;;;;17.67;13.32;;;;;;;;;;815227;73;26277;-86
2022/02/14 01:06:26;;;;;;;16.35;13.30;;;;;;;;;;815173;73;26309;-83
2022/02/14 01:07:29;;;;;;;21.48;14.40;;;;;;;;;;814939;73;26221;-85
2022/02/14 01:08:32;;;;;;;21.05;15.00;;;;;;;;;;800191;73;26392;-85
2022/02/14 01:09:35;;;;;;;18.42;13.90;;;;;;;;;;815166;73;26361;-85
2022/02/14 01:10:38;;;;;;;21.25;14.25;;;;;;;;;;815062;73;26210;-86
2022/02/14 01:11:40;;;;;;;24.02;15.30;;;;;;;;;;815097;73;26303;-86
2022/02/14 01:12:45;;;;;;;17.75;14.20;;;;;;;;;;799059;73;26279;-84
2022/02/14 01:13:47;;;;;;;20.00;15.63;;;;;;;;;;815148;73;26323;-84
2022/02/14 01:14:50;;;;;;;18.65;14.50;;;;;;;;;;815237;73;26292;-87
2022/02/14 01:15:53;;;;;;;21.27;15.90;;;;;;;;;;815221;73;26343;-85
2022/02/14 01:16:57;;;;;;;22.73;15.70;;;;;;;;;;815222;70;26676;-86
2022/02/14 01:18:00;;;;;;;22.55;15.48;;;;;;;;;;815096;73;26467;-86
2022/02/14 01:19:05;;;;;;;18.60;15.72;;;;;;;;;;815038;73;26300;-85
2022/02/14 01:20:09;;;;;;;18.60;14.00;;;;;;;;;;815216;73;26362;-85
2022/02/14 01:21:12;;;;;;;20.15;13.40;;;;;;;;;;815130;73;26493;-86
2022/02/14 01:22:15;;;;;;;16.77;13.20;;;;;;;;;;815337;73;26245;-86
2022/02/14 01:23:18;;;;;;;15.63;12.82;;;;;;;;;;815168;73;26214;-87
2022/02/14 01:24:20;;;;;;;16.20;13.35;;;;;;;;;;814889;73;26365;-83
2022/02/14 01:25:23;;;;;;;17.27;13.10;;;;;;;;;;815138;73;26265;-84
2022/02/14 01:26:26;;;;;;;17.75;12.68;;;;;;;;;;815137;73;26283;-86
2022/02/14 01:27:29;;;;;;;19.70;13.62;;;;;;;;;;815251;73;26319;-85
2022/02/14 01:28:32;;;;;;;15.95;12.33;;;;;;;;;;815175;73;26487;-86
2022/02/14 01:29:35;;;;;;;16.00;11.95;;;;;;;;;;814980;73;27014;-86
2022/02/14 01:30:38;;;;;;;16.40;12.00;;;;;;;;;;815220;73;26327;-85
2022/02/14 01:31:41;;;;;;;17.70;12.93;;;;;;;;;;815221;73;26346;-85
2022/02/14 01:32:44;;;;;;;17.60;12.93;;;;;;;;;;815282;73;26265;-85
2022/02/14 01:33:47;;;;;;;17.30;12.15;;;;;;;;;;815257;73;26314;-84
2022/02/14 01:34:50;;;;;;;14.68;11.60;;;;;;;;;;800033;73;26268;-85
2022/02/14 01:35:53;;;;;;;15.65;11.43;;;;;;;;;;815310;73;26213;-85
2022/02/14 01:36:56;;;;;;;15.05;11.50;;;;;;;;;;815339;73;26286;-86
2022/02/14 01:37:58;;;;;;;14.40;11.30;;;;;;;;;;815343;73;26366;-85
2022/02/14 01:39:01;;;;;;;12.98;10.45;;;;;;;;;;815358;73;26361;-86
2022/02/14 01:40:04;;;;;;;13.35;10.75;;;;;;;;;;800239;73;26380;-85
2022/02/14 01:41:07;;;;;;;13.83;10.32;;;;;;;;;;815001;73;26229;-84
2022/02/14 01:42:10;;;;;;;13.93;10.90;;;;;;;;;;815196;72;26296;-85
2022/02/14 01:43:15;;;;;;;15.68;12.10;;;;;;;;;;815236;73;26632;-87
2022/02/14 01:44:33;;;;;;;17.87;11.22;;;;;;;;;;815306;73;26201;-86
2022/02/14 01:45:36;;;;;;;17.45;11.38;;;;;;;;;;800334;73;26330;-85
2022/02/14 01:46:39;;;;;;;13.70;10.55;;;;;;;;;;815251;73;26337;-86
2022/02/14 01:47:42;;;;;;;13.53;10.93;;;;;;;;;;815054;73;26893;-85
2022/02/14 01:48:45;;;;;;;13.58;11.10;;;;;;;;;;815204;73;26245;-84
2022/02/14 01:49:48;;;;;;;13.53;10.88;;;;;;;;;;800208;73;24704;-84
2022/02/14 01:50:51;;;;;;;14.45;10.90;;;;;;;;;;815205;73;26326;-86
2022/02/14 01:51:54;;;;;;;14.35;11.55;;;;;;;;;;800113;73;26299;-84
2022/02/14 01:52:57;;;;;;;17.07;10.82;;;;;;;;;;814995;73;26285;-85
2022/02/14 01:54:00;;;;;;;15.53;11.75;;;;;;;;;;815222;73;26269;-84
2022/02/14 01:55:04;;;;;;;15.60;12.30;;;;;;;;;;815311;73;26646;-85
2022/02/14 01:56:07;;;;;;;16.10;11.70;;;;;;;;;;815267;73;26358;-84
2022/02/14 01:57:10;;;;;;;16.75;11.95;;;;;;;;;;800786;73;26744;-84
2022/02/14 01:58:13;;;;;;;15.45;11.15;;;;;;;;;;816331;73;26632;-86
2022/02/14 01:59:15;;;;;;;17.05;11.75;;;;;;;;;;816142;73;26249;-86
2022/02/14 02:00:19;;;;;;;13.78;11.03;;;;;;;;;;816070;73;26272;-85
2022/02/14 02:01:22;;;;;;;16.67;11.38;;;;;;;;;;815670;73;26745;-84
2022/02/14 02:02:26;;;;;;;15.95;11.90;;;;;;;;;;815212;73;24487;-84
2022/02/14 02:03:29;;;;;;;15.40;12.23;;;;;;;;;;815288;73;26770;-86
2022/02/14 02:04:31;;;;;;;16.77;12.45;;;;;;;;;;799931;73;26287;-85
2022/02/14 02:05:34;;;;;;;16.27;12.28;;;;;;;;;;815223;73;26322;-86
2022/02/14 02:06:37;;;;;;;18.92;12.33;;;;;;;;;;815268;73;26331;-84
2022/02/14 02:07:40;;;;;;;20.45;12.90;;;;;;;;;;815151;73;26264;-86
2022/02/14 02:08:43;;;;;;;18.82;13.50;;;;;;;;;;815294;73;26726;-83
2022/02/14 02:09:46;;;;;;;19.50;13.40;;;;;;;;;;815046;73;26277;-87
2022/02/14 02:10:49;;;;;;;16.07;12.80;;;;;;;;;;815357;73;26288;-84
2022/02/14 02:13:14;;;;;;;20.85;14.58;;;;;;;;;;815477;73;26361;-86
2022/02/14 02:14:18;;;;;;;19.85;14.45;;;;;;;;;;815562;73;26214;-86
2022/02/14 02:15:22;;;;;;;18.67;14.33;;;;;;;;;;815480;72;26305;-86
2022/02/14 02:16:25;;;;;;;18.57;14.33;;;;;;;;;;815697;73;26613;-85
2022/02/14 02:17:29;;;;;;;17.70;14.25;;;;;;;;;;816429;71;26288;-84
2022/02/14 02:18:32;;;;;;;19.20;13.58;;;;;;;;;;801584;73;26288;-84
2022/02/14 02:19:35;;;;;;;22.17;14.95;;;;;;;;;;816376;73;24701;-83
2022/02/14 02:20:37;;;;;;;18.32;14.20;;;;;;;;;;816164;73;26257;-87
2022/02/14 02:21:42;;;;;;;20.57;14.10;;;;;;;;;;817064;72;26264;-84
2022/02/14 02:22:45;;;;;;;18.35;14.53;;;;;;;;;;817245;72;26280;-86
2022/02/14 02:23:48;;;;;;;18.50;14.05;;;;;;;;;;802103;73;26212;-86
2022/02/14 02:24:54;;;;;;;19.15;13.98;;;;;;;;;;802078;73;26255;-86
2022/02/14 02:25:57;;;;;;;19.02;14.40;;;;;;;;;;802082;73;26392;-85
2022/02/14 02:27:01;;;;;;;20.65;14.38;;;;;;;;;;817071;73;26261;-86
2022/02/14 02:28:03;;;;;;;20.00;14.70;;;;;;;;;;816397;73;26201;-84
2022/02/14 02:29:06;;;;;;;21.87;15.48;;;;;;;;;;815312;73;26456;-84
2022/02/14 02:30:11;;;;;;;23.98;16.12;;;;;;;;;;800385;73;26299;-85
2022/02/14 02:31:14;;;;;;;21.65;14.53;;;;;;;;;;815525;73;26273;-85
2022/02/14 02:32:17;;;;;;;21.40;14.73;;;;;;;;;;815915;73;24792;-86
2022/02/14 02:33:20;;;;;;;18.77;14.55;;;;;;;;;;815455;73;26722;-86
2022/02/14 02:34:22;;;;;;;25.68;15.32;;;;;;;;;;815381;73;26276;-85
2022/02/14 02:35:26;;;;;;;21.60;14.85;;;;;;;;;;815044;73;26260;-84
2022/02/14 02:36:29;;;;;;;21.20;15.15;;;;;;;;;;814954;73;26252;-86
2022/02/14 02:37:32;;;;;;;22.10;15.53;;;;;;;;;;814861;73;26273;-85
2022/02/14 02:38:34;;;;;;;20.60;14.85;;;;;;;;;;815011;73;26370;-84
2022/02/14 02:39:37;;;;;;;23.45;15.45;;;;;;;;;;814811;73;26281;-86
2022/02/14 02:40:40;;;;;;;21.20;15.03;;;;;;;;;;814991;73;24863;-84
2022/02/14 02:41:43;;;;;;;19.77;15.00;;;;;;;;;;814892;73;26322;-86
2022/02/14 02:42:46;;;;;;;22.00;15.50;;;;;;;;;;814799;73;26265;-84
2022/02/14 02:43:49;;;;;;;21.33;16.00;;;;;;;;;;814894;73;26221;-84
2022/02/14 02:44:53;;;;;;;22.02;15.60;;;;;;;;;;814894;73;26288;-86
2022/02/14 02:45:56;;;;;;;22.45;16.30;;;;;;;;;;814752;73;26210;-84
2022/02/14 02:47:00;;;;;;;19.60;15.38;;;;;;;;;;814755;73;26343;-85
2022/02/14 02:48:03;;;;;;;22.37;16.60;;;;;;;;;;814219;72;26308;-85
2022/02/14 02:49:16;;;;;;;20.75;16.40;;;;;;;;;;814719;73;26810;-85
2022/02/14 02:50:19;;;;;;;21.33;15.18;;;;;;;;;;814712;73;26718;-86
2022/02/14 02:51:24;;;;;;;20.05;15.13;;;;;;;;;;814990;72;26225;-85
2022/02/14 02:52:27;;;;;;;19.27;16.15;;;;;;;;;;814906;73;26254;-85
2022/02/14 02:53:31;;;;;;;18.98;14.47;;;;;;;;;;814904;72;26333;-84
2022/02/14 02:54:34;;;;;;;19.52;14.05;;;;;;;;;;814883;73;26338;-83
2022/02/14 02:55:37;;;;;;;19.73;15.18;;;;;;;;;;815003;73;26272;-87
2022/02/14 02:56:41;;;;;;;19.67;14.07;;;;;;;;;;815062;73;26332;-85
2022/02/14 02:57:44;;;;;;;19.92;15.20;;;;;;;;;;814801;73;26308;-86
2022/02/14 02:58:47;;;;;;;18.17;14.05;;;;;;;;;;799895;73;26800;-86
2022/02/14 02:59:50;;;;;;;22.10;15.38;;;;;;;;;;799973;73;26337;-84
2022/02/14 03:00:53;;;;;;;17.95;14.47;;;;;;;;;;814805;73;27423;-86
2022/02/14 03:01:56;;;;;;;24.43;15.78;;;;;;;;;;814786;72;26262;-84
2022/02/14 03:02:58;;;;;;;18.00;14.60;;;;;;;;;;814726;72;26353;-84
2022/02/14 03:04:02;;;;;;;20.65;15.05;;;;;;;;;;814935;73;26260;-85
2022/02/14 03:05:04;;;;;;;16.60;13.95;;;;;;;;;;814884;73;26271;-85
2022/02/14 03:06:07;;;;;;;22.22;15.18;;;;;;;;;;814821;73;26261;-84
2022/02/14 03:07:10;;;;;;;19.98;14.90;;;;;;;;;;814745;73;26301;-84
2022/02/14 03:08:12;;;;;;;20.75;16.35;;;;;;;;;;814905;73;26737;-81
2022/02/14 03:09:15;;;;;;;20.32;14.38;;;;;;;;;;815059;73;26226;-81
2022/02/14 03:10:18;;;;;;;19.98;14.75;;;;;;;;;;799813;73;26349;-81
2022/02/14 03:11:22;;;;;;;19.37;15.63;;;;;;;;;;814769;73;26516;-82
2022/02/14 03:12:25;;;;;;;19.45;14.78;;;;;;;;;;814783;73;26726;-83
2022/02/14 03:13:28;;;;;;;22.22;15.05;;;;;;;;;;814843;73;26226;-82
2022/02/14 03:14:31;;;;;;;19.30;14.98;;;;;;;;;;814879;73;26666;-80
2022/02/14 03:15:33;;;;;;;21.07;14.58;;;;;;;;;;814995;73;26327;-81
2022/02/14 03:16:36;;;;;;;21.48;15.63;;;;;;;;;;815063;73;26667;-82
2022/02/14 03:17:39;;;;;;;18.00;14.50;;;;;;;;;;800057;73;26311;-83
2022/02/14 03:18:42;;;;;;;21.20;13.90;;;;;;;;;;816381;71;26304;-82
2022/02/14 03:19:45;;;;;;;22.67;15.53;;;;;;;;;;817683;72;26281;-84
2022/02/14 03:20:48;;;;;;;21.77;14.07;;;;;;;;;;798846;74;26663;-81
2022/02/14 03:21:51;;;;;;;21.82;14.40;;;;;;;;;;792307;73;26777;-82
2022/02/14 03:22:53;;;;;;;21.52;15.28;;;;;;;;;;817882;72;26311;-82
2022/02/14 03:24:01;;;;;;;20.00;14.83;;;;;;;;;;817791;72;26780;-83
2022/02/14 03:25:01;;;;;;;20.35;14.63;;;;;;;;;;797637;74;26306;-83
2022/02/14 03:26:03;;;;;;;21.55;15.23;;;;;;;;;;792233;73;26708;-82
2022/02/14 03:27:06;;;;;;;19.92;16.00;;;;;;;;;;817787;72;25569;-82
2022/02/14 03:28:09;;;;;;;19.55;15.35;;;;;;;;;;817747;72;26697;-81
2022/02/14 03:29:14;;;;;;;21.40;15.43;;;;;;;;;;798799;74;26767;-84
2022/02/14 03:30:16;;;;;;;23.73;16.45;;;;;;;;;;817593;72;26376;-83
2022/02/14 03:31:19;;;;;;;21.42;16.12;;;;;;;;;;798609;74;26754;-81
2022/02/14 03:32:21;;;;;;;22.80;15.98;;;;;;;;;;792177;73;26359;-82
2022/02/14 03:33:24;;;;;;;23.62;17.10;;;;;;;;;;816482;72;26308;-82
2022/02/14 03:34:27;;;;;;;20.82;16.20;;;;;;;;;;817583;72;26768;-82
2022/02/14 03:35:30;;;;;;;21.15;16.77;;;;;;;;;;798796;74;24937;-83
2022/02/14 03:36:32;;;;;;;19.85;15.85;;;;;;;;;;817351;72;26231;-83
2022/02/14 03:37:35;;;;;;;21.93;16.65;;;;;;;;;;799000;74;26318;-81
2022/02/14 03:38:38;;;;;;;23.98;16.93;;;;;;;;;;817664;72;26346;-83
2022/02/14 03:39:41;;;;;;;22.60;16.62;;;;;;;;;;799020;74;26283;-82
2022/02/14 03:40:44;;;;;;;21.52;15.20;;;;;;;;;;775610;74;24716;-82
2022/02/14 03:41:46;;;;;;;23.05;15.18;;;;;;;;;;797024;73;26342;-86
2022/02/14 03:42:49;;;;;;;20.30;16.15;;;;;;;;;;792146;73;26325;-86
2022/02/14 03:43:52;;;;;;;22.15;16.57;;;;;;;;;;817338;72;26798;-89
2022/02/14 03:44:55;;;;;;;22.70;16.77;;;;;;;;;;818179;72;26270;-86
2022/02/14 03:45:57;;;;;;;23.62;16.55;;;;;;;;;;798715;74;26294;-85
2022/02/14 03:47:00;;;;;;;20.08;16.25;;;;;;;;;;792211;73;26274;-86
2022/02/14 03:48:03;;;;;;;23.85;15.85;;;;;;;;;;817663;72;26734;-84
2022/02/14 03:49:07;;;;;;;23.15;16.25;;;;;;;;;;817707;72;26262;-85
2022/02/14 03:50:10;;;;;;;20.77;15.85;;;;;;;;;;798942;74;26949;-86
2022/02/14 03:51:13;;;;;;;24.95;16.75;;;;;;;;;;817551;72;26653;-86
2022/02/14 03:52:17;;;;;;;22.00;16.60;;;;;;;;;;798837;74;26766;-85
2022/02/14 03:53:20;;;;;;;22.98;17.17;;;;;;;;;;791954;73;26689;-85
2022/02/14 03:54:23;;;;;;;22.48;16.42;;;;;;;;;;818180;72;26315;-84
2022/02/14 03:55:25;;;;;;;23.55;17.20;;;;;;;;;;818540;72;26725;-84
2022/02/14 03:56:28;;;;;;;20.68;16.07;;;;;;;;;;799382;74;26837;-86
2022/02/14 03:57:31;;;;;;;21.23;16.30;;;;;;;;;;818092;72;26685;-85
2022/02/14 03:58:34;;;;;;;22.42;16.32;;;;;;;;;;818679;72;26654;-86
2022/02/14 03:59:38;;;;;;;23.65;16.90;;;;;;;;;;818447;72;26395;-84
2022/02/14 04:00:41;;;;;;;19.95;15.28;;;;;;;;;;799658;74;26297;-87
2022/02/14 04:01:46;;;;;;;24.15;17.92;;;;;;;;;;818495;71;26232;-85
2022/02/14 04:02:49;;;;;;;22.67;16.15;;;;;;;;;;800716;74;26374;-86
2022/02/14 04:03:51;;;;;;;21.45;15.95;;;;;;;;;;819642;72;26298;-85
2022/02/14 04:04:55;;;;;;;21.85;16.65;;;;;;;;;;800905;74;26363;-83
2022/02/14 04:05:58;;;;;;;25.30;17.45;;;;;;;;;;794565;73;26204;-85
2022/02/14 04:07:01;;;;;;;21.27;16.35;;;;;;;;;;819812;72;26239;-85
2022/02/14 04:08:04;;;;;;;25.05;17.27;;;;;;;;;;819705;72;26312;-86
2022/02/14 04:09:07;;;;;;;23.15;17.73;;;;;;;;;;800574;74;26274;-86
2022/02/14 04:10:11;;;;;;;21.65;15.88;;;;;;;;;;819292;72;26305;-86
2022/02/14 04:11:13;;;;;;;19.45;15.55;;;;;;;;;;804244;74;26407;-85
2022/02/14 04:12:16;;;;;;;21.35;16.25;;;;;;;;;;818658;72;26293;-86
2022/02/14 04:13:19;;;;;;;23.32;16.42;;;;;;;;;;799776;74;26321;-85
2022/02/14 04:14:22;;;;;;;23.73;16.82;;;;;;;;;;817982;72;26802;-84
2022/02/14 04:15:24;;;;;;;25.43;17.48;;;;;;;;;;818254;72;24782;-85
2022/02/14 04:16:27;;;;;;;23.40;16.70;;;;;;;;;;799593;74;26278;-83
2022/02/14 04:17:30;;;;;;;22.25;17.25;;;;;;;;;;818027;72;26318;-83
2022/02/14 04:18:33;;;;;;;20.57;15.68;;;;;;;;;;799283;74;26360;-82
2022/02/14 04:19:36;;;;;;;27.15;17.75;;;;;;;;;;816781;70;26233;-84
2022/02/14 04:20:38;;;;;;;21.75;15.93;;;;;;;;;;815468;73;26799;-85
2022/02/14 04:21:41;;;;;;;21.37;16.55;;;;;;;;;;815409;73;26206;-86
2022/02/14 04:22:44;;;;;;;21.33;16.45;;;;;;;;;;815380;73;26262;-83
2022/02/14 04:23:47;;;;;;;24.05;18.05;;;;;;;;;;800267;73;26333;-84
2022/02/14 04:24:49;;;;;;;23.80;18.30;;;;;;;;;;815555;72;26711;-86
2022/02/14 04:25:55;;;;;;;26.27;19.42;;;;;;;;;;815172;73;24832;-84
2022/02/14 04:26:58;;;;;;;24.50;18.00;;;;;;;;;;815259;73;26273;-83
2022/02/14 04:28:01;;;;;;;25.40;17.90;;;;;;;;;;815430;73;24862;-85
2022/02/14 04:29:05;;;;;;;24.23;17.27;;;;;;;;;;815529;73;26303;-85
2022/02/14 04:30:08;;;;;;;25.80;18.30;;;;;;;;;;815185;73;26335;-86
2022/02/14 04:31:11;;;;;;;25.15;18.80;;;;;;;;;;800143;73;26365;-85
2022/02/14 04:32:14;;;;;;;23.67;17.70;;;;;;;;;;815478;73;26284;-85
2022/02/14 04:33:17;;;;;;;25.17;17.00;;;;;;;;;;815540;73;26679;-87
2022/02/14 04:34:20;;;;;;;24.85;17.42;;;;;;;;;;815717;73;26354;-85
2022/02/14 04:35:23;;;;;;;25.05;18.02;;;;;;;;;;815796;73;26288;-85
2022/02/14 04:36:26;;;;;;;28.10;18.00;;;;;;;;;;816125;73;26298;-87
2022/02/14 04:37:29;;;;;;;26.52;19.32;;;;;;;;;;816162;73;26378;-85
2022/02/14 04:38:31;;;;;;;22.65;17.35;;;;;;;;;;801063;73;26349;-83
2022/02/14 04:39:34;;;;;;;22.75;16.23;;;;;;;;;;816012;73;26295;-84
2022/02/14 04:40:39;;;;;;;23.80;16.80;;;;;;;;;;815762;73;26286;-84
2022/02/14 04:41:41;;;;;;;21.45;15.80;;;;;;;;;;815811;73;26256;-85
2022/02/14 04:42:44;;;;;;;25.02;17.25;;;;;;;;;;815509;73;24896;-84
2022/02/14 04:43:47;;;;;;;23.67;17.07;;;;;;;;;;816061;73;24622;-86
2022/02/14 04:44:50;;;;;;;18.62;16.05;;;;;;;;;;815929;73;26308;-86
2022/02/14 04:45:53;;;;;;;21.90;15.63;;;;;;;;;;815899;73;26221;-87
2022/02/14 04:46:56;;;;;;;22.27;15.60;;;;;;;;;;801121;73;26765;-84
2022/02/14 04:48:00;;;;;;;20.72;15.15;;;;;;;;;;816164;73;26330;-85
2022/02/14 04:49:03;;;;;;;20.27;15.65;;;;;;;;;;816450;73;26209;-84
2022/02/14 04:50:05;;;;;;;20.95;16.37;;;;;;;;;;801301;73;26272;-86
2022/02/14 04:51:08;;;;;;;23.52;17.10;;;;;;;;;;816127;73;26305;-86
2022/02/14 04:52:12;;;;;;;21.05;16.35;;;;;;;;;;800841;73;26299;-87
2022/02/14 04:53:15;;;;;;;21.57;15.70;;;;;;;;;;815547;73;26273;-86
2022/02/14 04:54:18;;;;;;;24.47;15.98;;;;;;;;;;815478;73;26257;-84
2022/02/14 04:55:21;;;;;;;19.32;16.25;;;;;;;;;;815866;73;26319;-84
2022/02/14 04:56:24;;;;;;;19.62;15.32;;;;;;;;;;816060;73;26264;-86
2022/02/14 04:57:27;;;;;;;20.08;16.75;;;;;;;;;;815868;73;26260;-87
2022/02/14 04:58:29;;;;;;;22.87;16.57;;;;;;;;;;815870;73;26280;-86
2022/02/14 04:59:33;;;;;;;21.07;14.58;;;;;;;;;;786407;74;26300;-84
2022/02/14 05:00:36;;;;;;;21.00;15.75;;;;;;;;;;804453;73;26262;-85
2022/02/14 05:01:39;;;;;;;24.40;16.48;;;;;;;;;;815812;73;26265;-86
2022/02/14 05:02:42;;;;;;;22.07;16.90;;;;;;;;;;815841;73;26186;-86
2022/02/14 05:03:45;;;;;;;21.30;16.32;;;;;;;;;;815891;73;26335;-84
2022/02/14 05:04:47;;;;;;;23.20;15.50;;;;;;;;;;815852;73;26322;-86
2022/02/14 05:05:50;;;;;;;20.72;14.90;;;;;;;;;;815839;73;26303;-87
2022/02/14 05:06:53;;;;;;;20.85;15.05;;;;;;;;;;815798;73;26284;-85
2022/02/14 05:07:56;;;;;;;21.62;14.68;;;;;;;;;;815802;73;26322;-86
2022/02/14 05:08:58;;;;;;;18.12;14.63;;;;;;;;;;800527;73;26749;-85
2022/02/14 05:10:01;;;;;;;22.32;14.28;;;;;;;;;;815144;72;26397;-86
2022/02/14 05:11:04;;;;;;;20.97;15.28;;;;;;;;;;815532;73;24669;-87
2022/02/14 05:12:06;;;;;;;20.62;15.50;;;;;;;;;;815337;73;26362;-84
2022/02/14 05:13:09;;;;;;;19.57;14.38;;;;;;;;;;812318;73;27927;-84
2022/02/14 05:14:12;;;;;;;21.62;15.40;;;;;;;;;;815035;72;24672;-82
2022/02/14 05:15:15;;;;;;;23.27;15.85;;;;;;;;;;799900;73;26292;-83
2022/02/14 05:16:23;;;;;;;20.62;15.45;;;;;;;;;;815010;73;26326;-81
2022/02/14 05:17:22;;;;;;;23.10;15.70;;;;;;;;;;799914;73;26373;-81
2022/02/14 05:18:25;;;;;;;23.38;16.80;;;;;;;;;;815025;73;26304;-83
2022/02/14 05:19:28;;;;;;;20.85;16.30;;;;;;;;;;814991;73;26238;-81
2022/02/14 05:20:30;;;;;;;20.37;15.68;;;;;;;;;;814963;72;26272;-82
2022/02/14 05:21:33;;;;;;;21.37;15.45;;;;;;;;;;814976;73;26241;-87
2022/02/14 05:22:36;;;;;;;18.92;14.93;;;;;;;;;;814782;73;26300;-85
2022/02/14 05:23:38;;;;;;;18.27;14.43;;;;;;;;;;815000;73;26350;-82
2022/02/14 05:24:42;;;;;;;23.87;14.85;;;;;;;;;;815047;73;26268;-82
2022/02/14 05:25:45;;;;;;;21.02;15.30;;;;;;;;;;814951;73;26347;-80
2022/02/14 05:26:48;;;;;;;19.65;14.55;;;;;;;;;;799854;73;27051;-82
2022/02/14 05:27:50;;;;;;;21.42;15.43;;;;;;;;;;815030;73;26727;-81
2022/02/14 05:28:55;;;;;;;23.05;15.28;;;;;;;;;;815034;73;26257;-84
2022/02/14 05:29:58;;;;;;;22.52;15.90;;;;;;;;;;815026;73;26248;-79
2022/02/14 05:31:01;;;;;;;18.67;14.53;;;;;;;;;;814207;73;26350;-82
2022/02/14 05:32:04;;;;;;;19.35;14.53;;;;;;;;;;814602;73;26245;-82
2022/02/14 05:33:07;;;;;;;17.92;14.60;;;;;;;;;;815141;73;26297;-80
2022/02/14 05:34:10;;;;;;;17.65;14.68;;;;;;;;;;815549;73;26312;-83
2022/02/14 05:35:13;;;;;;;19.80;15.03;;;;;;;;;;800091;74;26380;-82
2022/02/14 05:36:18;;;;;;;18.25;14.60;;;;;;;;;;800033;73;26341;-84
2022/02/14 05:37:20;;;;;;;20.37;15.25;;;;;;;;;;815026;73;26268;-79
2022/02/14 05:38:23;;;;;;;25.95;18.35;;;;;;;;;;815094;73;26748;-83
2022/02/14 05:39:27;;;;;;;22.58;18.00;;;;;;;;;;815076;73;26539;-82
2022/02/14 05:40:30;;;;;;;22.27;16.27;;;;;;;;;;815099;73;26300;-82
2022/02/14 05:41:32;;;;;;;20.20;16.10;;;;;;;;;;814968;73;26726;-84
2022/02/14 05:42:35;;;;;;;19.95;14.95;;;;;;;;;;814959;73;26255;-84
2022/02/14 05:43:38;;;;;;;19.62;14.45;;;;;;;;;;814969;73;26603;-82
2022/02/14 05:44:41;;;;;;;19.12;14.47;;;;;;;;;;815167;73;26308;-82
2022/02/14 05:45:43;;;;;;;20.25;14.07;;;;;;;;;;815111;73;26217;-81
2022/02/14 05:46:46;;;;;;;20.37;15.15;;;;;;;;;;815068;73;26260;-78
2022/02/14 05:47:49;;;;;;;23.02;16.05;;;;;;;;;;815039;73;26306;-81
2022/02/14 05:48:52;;;;;;;22.87;16.02;;;;;;;;;;814942;73;26299;-85
2022/02/14 05:49:55;;;;;;;22.35;15.60;;;;;;;;;;800100;73;26244;-80
2022/02/14 05:50:58;;;;;;;19.52;15.45;;;;;;;;;;800020;74;26283;-83
2022/02/14 05:52:00;;;;;;;30.35;19.60;;;;;;;;;;815044;73;26261;-82
2022/02/14 05:53:05;;;;;;;46.42;25.40;;;;;;;;;;815028;73;26249;-85
2022/02/14 05:54:08;;;;;;;29.92;21.65;;;;;;;;;;814921;73;26276;-83
2022/02/14 05:55:11;;;;;;;25.02;19.90;;;;;;;;;;815255;73;26210;-83
2022/02/14 05:56:14;;;;;;;24.65;17.98;;;;;;;;;;800217;73;26352;-82
2022/02/14 05:57:18;;;;;;;23.22;17.77;;;;;;;;;;815207;73;26276;-83
2022/02/14 05:58:21;;;;;;;24.80;17.10;;;;;;;;;;815145;73;26233;-82
2022/02/14 05:59:23;;;;;;;20.68;15.55;;;;;;;;;;815153;73;24229;-82
2022/02/14 06:00:26;;;;;;;19.05;15.78;;;;;;;;;;814807;73;26319;-81
2022/02/14 06:01:31;;;;;;;22.98;14.65;;;;;;;;;;799976;73;26271;-81
2022/02/14 06:02:34;;;;;;;22.32;15.50;;;;;;;;;;815098;73;26269;-84
2022/02/14 06:03:37;;;;;;;19.87;15.32;;;;;;;;;;815064;73;26226;-84
2022/02/14 06:04:39;;;;;;;24.85;15.50;;;;;;;;;;815081;73;27179;-85
2022/02/14 06:05:42;;;;;;;20.12;15.85;;;;;;;;;;799833;73;26405;-84
2022/02/14 06:06:45;;;;;;;21.77;16.25;;;;;;;;;;815023;73;26560;-82
2022/02/14 06:07:47;;;;;;;19.80;15.28;;;;;;;;;;815046;73;26679;-81
2022/02/14 06:08:50;;;;;;;19.12;15.30;;;;;;;;;;814934;73;24852;-83
2022/02/14 06:09:53;;;;;;;19.37;15.28;;;;;;;;;;814832;73;26265;-83
2022/02/14 06:10:56;;;;;;;23.70;17.57;;;;;;;;;;814929;73;26264;-81
2022/02/14 06:11:59;;;;;;;23.35;16.85;;;;;;;;;;815025;73;24641;-81
2022/02/14 06:13:02;;;;;;;25.20;17.75;;;;;;;;;;814992;73;26377;-79
2022/02/14 06:14:06;;;;;;;26.90;19.30;;;;;;;;;;814314;72;26281;-78